sensor_id;sensor_type;location;lat;lon;timestamp;temperature;humidity
18225;DHT22;9237;48.590;8.854;2023-04-01T00:01:05;7.20;99.90
18225;DHT22;9237;48.590;8.854;2023-04-01T00:03:33;7.20;99.90
18225;DHT22;9237;48.590;8.854;2023-04-01T00:06:01;7.10;99.90
18225;DHT22;9237;48.590;8.854;2023-04-01T00:08:29;7.20;99.90
18225;DHT22;9237;48.590;8.854;2023-04-01T00:10:55;7.10;99.90
18225;DHT22;9237;48.590;8.854;2023-04-01T00:13:25;7.20;99.90
18225;DHT22;9237;48.590;8.854;2023-04-01T00:15:52;7.20;99.90
18225;DHT22;9237;48.590;8.854;2023-04-01T00:18:20;7.20;99.90
18225;DHT22;9237;48.590;8.854;2023-04-01T00:20:48;7.20;99.90
18225;DHT22;9237;48.590;8.854;2023-04-01T00:23:16;7.10;99.90
18225;DHT22;9237;48.590;8.854;2023-04-01T00:25:44;7.10;99.90
18225;DHT22;9237;48.590;8.854;2023-04-01T00:28:10;7.30;99.90
18225;DHT22;9237;48.590;8.854;2023-04-01T00:30:39;7.10;99.90
18225;DHT22;9237;48.590;8.854;2023-04-01T00:33:05;7.60;99.90
18225;DHT22;9237;48.590;8.854;2023-04-01T00:35:32;7.10;99.90
18225;DHT22;9237;48.590;8.854;2023-04-01T00:38:00;7.10;99.90
18225;DHT22;9237;48.590;8.854;2023-04-01T00:40:29;7.00;99.90
18225;DHT22;9237;48.590;8.854;2023-04-01T00:42:56;7.00;99.90
18225;DHT22;9237;48.590;8.854;2023-04-01T00:45:27;7.00;99.90
18225;DHT22;9237;48.590;8.854;2023-04-01T00:47:56;7.00;99.90
18225;DHT22;9237;48.590;8.854;2023-04-01T00:50:26;7.00;99.90
18225;DHT22;9237;48.590;8.854;2023-04-01T00:52:55;6.90;99.90
18225;DHT22;9237;48.590;8.854;2023-04-01T00:55:23;7.00;99.90
18225;DHT22;9237;48.590;8.854;2023-04-01T00:57:53;7.00;99.90
18225;DHT22;9237;48.590;8.854;2023-04-01T01:00:21;7.10;99.90
18225;DHT22;9237;48.590;8.854;2023-04-01T01:02:50;7.10;99.90
18225;DHT22;9237;48.590;8.854;2023-04-01T01:05:23;7.10;99.90
18225;DHT22;9237;48.590;8.854;2023-04-01T01:07:58;7.20;99.90
18225;DHT22;9237;48.590;8.854;2023-04-01T01:10:31;8.00;99.90
18225;DHT22;9237;48.590;8.854;2023-04-01T01:13:04;7.10;99.90
18225;DHT22;9237;48.590;8.854;2023-04-01T01:15:39;7.10;99.90
18225;DHT22;9237;48.590;8.854;2023-04-01T01:18:17;7.00;99.90
18225;DHT22;9237;48.590;8.854;2023-04-01T01:21:11;6.90;99.90
18225;DHT22;9237;48.590;8.854;2023-04-01T01:24:04;6.90;99.90
18225;DHT22;9237;48.590;8.854;2023-04-01T01:26:53;6.90;99.90
18225;DHT22;9237;48.590;8.854;2023-04-01T01:29:46;6.90;99.90
18225;DHT22;9237;48.590;8.854;2023-04-01T01:32:25;6.90;99.90
18225;DHT22;9237;48.590;8.854;2023-04-01T01:35:09;6.90;99.90
18225;DHT22;9237;48.590;8.854;2023-04-01T01:37:39;6.90;99.90
18225;DHT22;9237;48.590;8.854;2023-04-01T01:40:09;6.90;99.90
18225;DHT22;9237;48.590;8.854;2023-04-01T01:42:39;6.90;99.90
18225;DHT22;9237;48.590;8.854;2023-04-01T01:45:09;6.90;99.90
18225;DHT22;9237;48.590;8.854;2023-04-01T01:47:37;6.90;99.90
18225;DHT22;9237;48.590;8.854;2023-04-01T01:50:07;6.90;99.90
18225;DHT22;9237;48.590;8.854;2023-04-01T01:52:34;6.80;99.90
18225;DHT22;9237;48.590;8.854;2023-04-01T01:55:01;6.80;99.90
18225;DHT22;9237;48.590;8.854;2023-04-01T01:57:31;6.80;99.90
18225;DHT22;9237;48.590;8.854;2023-04-01T02:00:03;7.30;99.90
18225;DHT22;9237;48.590;8.854;2023-04-01T02:02:33;7.30;99.90
18225;DHT22;9237;48.590;8.854;2023-04-01T02:05:01;6.70;99.90
18225;DHT22;9237;48.590;8.854;2023-04-01T02:07:33;6.70;99.90
18225;DHT22;9237;48.590;8.854;2023-04-01T02:10:02;6.70;99.90
18225;DHT22;9237;48.590;8.854;2023-04-01T02:12:30;6.60;99.90
18225;DHT22;9237;48.590;8.854;2023-04-01T02:15:01;6.60;99.90
18225;DHT22;9237;48.590;8.854;2023-04-01T02:17:32;6.50;99.90
18225;DHT22;9237;48.590;8.854;2023-04-01T02:20:01;6.50;99.90
18225;DHT22;9237;48.590;8.854;2023-04-01T02:22:33;6.50;99.90
18225;DHT22;9237;48.590;8.854;2023-04-01T02:25:04;6.50;99.90
18225;DHT22;9237;48.590;8.854;2023-04-01T02:27:31;6.60;99.90
18225;DHT22;9237;48.590;8.854;2023-04-01T02:29:58;6.60;99.90
18225;DHT22;9237;48.590;8.854;2023-04-01T02:32:27;6.50;99.90
18225;DHT22;9237;48.590;8.854;2023-04-01T02:34:55;6.50;99.90
18225;DHT22;9237;48.590;8.854;2023-04-01T02:37:23;6.50;99.90
18225;DHT22;9237;48.590;8.854;2023-04-01T02:39:51;6.50;99.90
18225;DHT22;9237;48.590;8.854;2023-04-01T02:42:18;7.10;99.90
18225;DHT22;9237;48.590;8.854;2023-04-01T02:44:45;6.40;99.90
18225;DHT22;9237;48.590;8.854;2023-04-01T02:47:12;6.40;99.90
18225;DHT22;9237;48.590;8.854;2023-04-01T02:49:38;6.40;99.90
18225;DHT22;9237;48.590;8.854;2023-04-01T02:52:07;6.40;99.90
18225;DHT22;9237;48.590;8.854;2023-04-01T02:54:33;6.30;99.90
18225;DHT22;9237;48.590;8.854;2023-04-01T02:57:02;6.30;99.90
18225;DHT22;9237;48.590;8.854;2023-04-01T02:59:28;6.20;99.90
18225;DHT22;9237;48.590;8.854;2023-04-01T03:01:55;6.20;99.90
18225;DHT22;9237;48.590;8.854;2023-04-01T03:04:22;6.30;99.90
18225;DHT22;9237;48.590;8.854;2023-04-01T03:06:49;6.30;99.90
18225;DHT22;9237;48.590;8.854;2023-04-01T03:09:16;6.30;99.90
18225;DHT22;9237;48.590;8.854;2023-04-01T03:11:43;6.30;99.90
18225;DHT22;9237;48.590;8.854;2023-04-01T03:14:11;6.40;99.90
18225;DHT22;9237;48.590;8.854;2023-04-01T03:16:38;7.30;99.90
18225;DHT22;9237;48.590;8.854;2023-04-01T03:19:05;6.30;99.90
18225;DHT22;9237;48.590;8.854;2023-04-01T03:21:32;6.30;99.90
18225;DHT22;9237;48.590;8.854;2023-04-01T03:23:58;7.20;99.90
18225;DHT22;9237;48.590;8.854;2023-04-01T03:26:25;6.40;99.90
18225;DHT22;9237;48.590;8.854;2023-04-01T03:28:53;6.30;99.90
18225;DHT22;9237;48.590;8.854;2023-04-01T03:31:21;6.40;99.90
18225;DHT22;9237;48.590;8.854;2023-04-01T03:33:48;6.30;99.90
18225;DHT22;9237;48.590;8.854;2023-04-01T03:36:15;6.30;99.90
18225;DHT22;9237;48.590;8.854;2023-04-01T03:38:43;6.40;99.90
18225;DHT22;9237;48.590;8.854;2023-04-01T03:41:12;6.30;99.90
18225;DHT22;9237;48.590;8.854;2023-04-01T03:43:39;6.30;99.90
18225;DHT22;9237;48.590;8.854;2023-04-01T03:46:05;6.30;99.90
18225;DHT22;9237;48.590;8.854;2023-04-01T03:48:34;6.60;99.90
18225;DHT22;9237;48.590;8.854;2023-04-01T03:51:01;6.20;99.90
18225;DHT22;9237;48.590;8.854;2023-04-01T03:53:27;6.20;99.90
18225;DHT22;9237;48.590;8.854;2023-04-01T03:55:54;6.20;99.90
18225;DHT22;9237;48.590;8.854;2023-04-01T03:58:21;6.10;99.90
18225;DHT22;9237;48.590;8.854;2023-04-01T04:00:48;6.20;99.90
18225;DHT22;9237;48.590;8.854;2023-04-01T04:03:14;6.10;99.90
18225;DHT22;9237;48.590;8.854;2023-04-01T04:05:47;6.10;99.90
18225;DHT22;9237;48.590;8.854;2023-04-01T04:08:14;6.00;99.90
18225;DHT22;9237;48.590;8.854;2023-04-01T04:10:41;5.90;99.90
18225;DHT22;9237;48.590;8.854;2023-04-01T04:13:08;5.90;99.90
18225;DHT22;9237;48.590;8.854;2023-04-01T04:15:35;5.90;99.90
18225;DHT22;9237;48.590;8.854;2023-04-01T04:18:02;5.80;99.90
18225;DHT22;9237;48.590;8.854;2023-04-01T04:20:29;5.80;99.90
18225;DHT22;9237;48.590;8.854;2023-04-01T04:22:57;5.70;99.90
18225;DHT22;9237;48.590;8.854;2023-04-01T04:25:23;5.90;99.90
18225;DHT22;9237;48.590;8.854;2023-04-01T04:27:50;6.00;99.90
18225;DHT22;9237;48.590;8.854;2023-04-01T04:30:17;5.80;99.90
18225;DHT22;9237;48.590;8.854;2023-04-01T04:32:44;5.80;99.90
18225;DHT22;9237;48.590;8.854;2023-04-01T04:35:11;5.90;99.90
18225;DHT22;9237;48.590;8.854;2023-04-01T04:37:37;5.90;99.90
18225;DHT22;9237;48.590;8.854;2023-04-01T04:40:07;6.80;99.90
18225;DHT22;9237;48.590;8.854;2023-04-01T04:42:34;6.00;99.90
18225;DHT22;9237;48.590;8.854;2023-04-01T04:45:01;6.10;99.90
18225;DHT22;9237;48.590;8.854;2023-04-01T04:47:28;6.10;99.90
18225;DHT22;9237;48.590;8.854;2023-04-01T04:49:55;6.20;99.90
18225;DHT22;9237;48.590;8.854;2023-04-01T04:52:21;6.20;99.90
18225;DHT22;9237;48.590;8.854;2023-04-01T04:54:48;6.20;99.90
18225;DHT22;9237;48.590;8.854;2023-04-01T04:57:16;6.20;99.90
18225;DHT22;9237;48.590;8.854;2023-04-01T04:59:43;6.30;99.90
18225;DHT22;9237;48.590;8.854;2023-04-01T05:02:10;6.30;99.90
18225;DHT22;9237;48.590;8.854;2023-04-01T05:04:37;6.30;99.90
18225;DHT22;9237;48.590;8.854;2023-04-01T05:07:04;6.40;99.90
18225;DHT22;9237;48.590;8.854;2023-04-01T05:09:31;7.40;99.90
18225;DHT22;9237;48.590;8.854;2023-04-01T05:11:58;6.70;99.90
18225;DHT22;9237;48.590;8.854;2023-04-01T05:14:26;6.80;99.90
18225;DHT22;9237;48.590;8.854;2023-04-01T05:16:53;6.60;99.90
18225;DHT22;9237;48.590;8.854;2023-04-01T05:19:20;6.70;99.90
18225;DHT22;9237;48.590;8.854;2023-04-01T05:21:47;6.60;99.90
18225;DHT22;9237;48.590;8.854;2023-04-01T05:24:14;6.60;99.90
18225;DHT22;9237;48.590;8.854;2023-04-01T05:26:41;6.60;99.90
18225;DHT22;9237;48.590;8.854;2023-04-01T05:29:07;7.50;99.90
18225;DHT22;9237;48.590;8.854;2023-04-01T05:31:35;6.70;99.90
18225;DHT22;9237;48.590;8.854;2023-04-01T05:34:02;6.70;99.90
18225;DHT22;9237;48.590;8.854;2023-04-01T05:36:29;7.70;99.90
18225;DHT22;9237;48.590;8.854;2023-04-01T05:38:56;6.80;99.90
18225;DHT22;9237;48.590;8.854;2023-04-01T05:41:23;6.80;99.90
18225;DHT22;9237;48.590;8.854;2023-04-01T05:43:49;6.80;99.90
18225;DHT22;9237;48.590;8.854;2023-04-01T05:46:16;6.80;99.90
18225;DHT22;9237;48.590;8.854;2023-04-01T05:48:44;6.90;99.90
18225;DHT22;9237;48.590;8.854;2023-04-01T05:51:12;6.80;99.90
18225;DHT22;9237;48.590;8.854;2023-04-01T05:53:40;6.90;99.90
18225;DHT22;9237;48.590;8.854;2023-04-01T05:56:07;6.90;99.90
18225;DHT22;9237;48.590;8.854;2023-04-01T05:58:35;7.00;99.90
18225;DHT22;9237;48.590;8.854;2023-04-01T06:01:02;7.10;99.90
18225;DHT22;9237;48.590;8.854;2023-04-01T06:03:30;7.70;99.90
18225;DHT22;9237;48.590;8.854;2023-04-01T06:05:58;7.20;99.90
18225;DHT22;9237;48.590;8.854;2023-04-01T06:08:27;7.20;99.90
18225;DHT22;9237;48.590;8.854;2023-04-01T06:11:04;7.20;99.90
18225;DHT22;9237;48.590;8.854;2023-04-01T06:13:52;7.20;99.90
18225;DHT22;9237;48.590;8.854;2023-04-01T06:16:32;7.30;99.90
18225;DHT22;9237;48.590;8.854;2023-04-01T06:19:13;7.40;99.90
18225;DHT22;9237;48.590;8.854;2023-04-01T06:22:03;7.40;99.90
18225;DHT22;9237;48.590;8.854;2023-04-01T06:24:52;7.50;99.90
18225;DHT22;9237;48.590;8.854;2023-04-01T06:27:30;7.50;99.90
18225;DHT22;9237;48.590;8.854;2023-04-01T06:30:11;7.50;99.90
18225;DHT22;9237;48.590;8.854;2023-04-01T06:33:09;7.40;99.90
18225;DHT22;9237;48.590;8.854;2023-04-01T06:35:56;7.40;99.90
18225;DHT22;9237;48.590;8.854;2023-04-01T06:41:51;7.40;99.90
18225;DHT22;9237;48.590;8.854;2023-04-01T06:44:25;7.40;99.90
18225;DHT22;9237;48.590;8.854;2023-04-01T06:46:58;7.50;99.90
18225;DHT22;9237;48.590;8.854;2023-04-01T06:49:41;7.50;99.90
18225;DHT22;9237;48.590;8.854;2023-04-01T06:52:19;7.60;99.90
18225;DHT22;9237;48.590;8.854;2023-04-01T06:54:52;7.60;99.90
18225;DHT22;9237;48.590;8.854;2023-04-01T06:57:28;7.70;99.90
18225;DHT22;9237;48.590;8.854;2023-04-01T06:59:57;8.60;99.90
18225;DHT22;9237;48.590;8.854;2023-04-01T07:02:32;7.70;99.90
18225;DHT22;9237;48.590;8.854;2023-04-01T07:05:01;7.80;99.90
18225;DHT22;9237;48.590;8.854;2023-04-01T07:07:33;7.80;99.90
18225;DHT22;9237;48.590;8.854;2023-04-01T07:10:03;7.80;99.90
18225;DHT22;9237;48.590;8.854;2023-04-01T07:12:40;7.80;99.90
18225;DHT22;9237;48.590;8.854;2023-04-01T07:15:17;7.70;99.90
18225;DHT22;9237;48.590;8.854;2023-04-01T07:17:45;7.70;99.90
18225;DHT22;9237;48.590;8.854;2023-04-01T07:20:19;7.70;99.90
18225;DHT22;9237;48.590;8.854;2023-04-01T07:22:48;7.70;99.90
18225;DHT22;9237;48.590;8.854;2023-04-01T07:25:18;7.70;99.90
18225;DHT22;9237;48.590;8.854;2023-04-01T07:27:48;8.20;99.90
18225;DHT22;9237;48.590;8.854;2023-04-01T07:30:18;8.50;99.90
18225;DHT22;9237;48.590;8.854;2023-04-01T07:32:47;7.80;99.90
18225;DHT22;9237;48.590;8.854;2023-04-01T07:35:22;8.80;99.90
18225;DHT22;9237;48.590;8.854;2023-04-01T07:38:03;8.00;99.90
18225;DHT22;9237;48.590;8.854;2023-04-01T07:40:39;8.00;99.90
18225;DHT22;9237;48.590;8.854;2023-04-01T07:43:21;8.00;99.90
18225;DHT22;9237;48.590;8.854;2023-04-01T07:45:57;8.10;99.90
18225;DHT22;9237;48.590;8.854;2023-04-01T07:48:30;8.00;99.90
18225;DHT22;9237;48.590;8.854;2023-04-01T07:51:01;8.00;99.90
18225;DHT22;9237;48.590;8.854;2023-04-01T07:53:35;8.00;99.90
18225;DHT22;9237;48.590;8.854;2023-04-01T07:56:06;8.00;99.90
18225;DHT22;9237;48.590;8.854;2023-04-01T07:58:45;7.90;99.90
18225;DHT22;9237;48.590;8.854;2023-04-01T08:01:20;7.90;99.90
18225;DHT22;9237;48.590;8.854;2023-04-01T08:04:08;7.80;99.90
18225;DHT22;9237;48.590;8.854;2023-04-01T08:06:41;7.80;99.90
18225;DHT22;9237;48.590;8.854;2023-04-01T08:09:18;7.90;99.90
18225;DHT22;9237;48.590;8.854;2023-04-01T08:12:04;7.80;99.90
18225;DHT22;9237;48.590;8.854;2023-04-01T08:14:40;7.90;99.90
18225;DHT22;9237;48.590;8.854;2023-04-01T08:17:14;7.90;99.90
18225;DHT22;9237;48.590;8.854;2023-04-01T08:19:56;8.00;99.90
18225;DHT22;9237;48.590;8.854;2023-04-01T08:22:27;8.00;99.90
18225;DHT22;9237;48.590;8.854;2023-04-01T08:24:57;7.80;99.90
18225;DHT22;9237;48.590;8.854;2023-04-01T08:27:34;8.30;99.90
18225;DHT22;9237;48.590;8.854;2023-04-01T08:30:06;7.90;99.90
18225;DHT22;9237;48.590;8.854;2023-04-01T08:32:43;7.80;99.90
18225;DHT22;9237;48.590;8.854;2023-04-01T08:35:24;7.80;99.90
18225;DHT22;9237;48.590;8.854;2023-04-01T08:37:54;7.70;99.90
18225;DHT22;9237;48.590;8.854;2023-04-01T08:40:39;7.80;99.90
18225;DHT22;9237;48.590;8.854;2023-04-01T08:43:11;7.80;99.90
18225;DHT22;9237;48.590;8.854;2023-04-01T08:46:00;7.70;99.90
18225;DHT22;9237;48.590;8.854;2023-04-01T08:48:40;7.70;99.90
18225;DHT22;9237;48.590;8.854;2023-04-01T08:51:25;7.70;99.90
18225;DHT22;9237;48.590;8.854;2023-04-01T08:54:12;8.60;99.90
18225;DHT22;9237;48.590;8.854;2023-04-01T08:56:50;7.80;99.90
18225;DHT22;9237;48.590;8.854;2023-04-01T08:59:40;7.90;99.90
18225;DHT22;9237;48.590;8.854;2023-04-01T09:02:50;8.00;99.90
18225;DHT22;9237;48.590;8.854;2023-04-01T09:05:36;8.20;99.90
18225;DHT22;9237;48.590;8.854;2023-04-01T09:08:16;8.40;99.90
18225;DHT22;9237;48.590;8.854;2023-04-01T09:11:07;8.40;99.90
18225;DHT22;9237;48.590;8.854;2023-04-01T09:16:53;8.20;99.90
18225;DHT22;9237;48.590;8.854;2023-04-01T09:19:31;8.20;99.90
18225;DHT22;9237;48.590;8.854;2023-04-01T09:22:13;8.20;99.90
18225;DHT22;9237;48.590;8.854;2023-04-01T09:27:45;8.20;99.90
18225;DHT22;9237;48.590;8.854;2023-04-01T09:30:42;8.20;99.90
18225;DHT22;9237;48.590;8.854;2023-04-01T09:36:19;8.40;99.90
18225;DHT22;9237;48.590;8.854;2023-04-01T09:38:56;8.50;99.90
18225;DHT22;9237;48.590;8.854;2023-04-01T09:41:29;8.90;99.90
18225;DHT22;9237;48.590;8.854;2023-04-01T09:44:02;8.90;99.90
18225;DHT22;9237;48.590;8.854;2023-04-01T09:46:52;8.70;99.90
18225;DHT22;9237;48.590;8.854;2023-04-01T09:49:50;8.80;99.90
18225;DHT22;9237;48.590;8.854;2023-04-01T09:52:31;8.40;99.90
18225;DHT22;9237;48.590;8.854;2023-04-01T09:55:19;8.70;99.90
18225;DHT22;9237;48.590;8.854;2023-04-01T09:58:07;8.40;99.90
18225;DHT22;9237;48.590;8.854;2023-04-01T10:00:53;8.30;99.90
18225;DHT22;9237;48.590;8.854;2023-04-01T10:06:57;8.10;99.90
18225;DHT22;9237;48.590;8.854;2023-04-01T10:12:55;8.20;99.90
18225;DHT22;9237;48.590;8.854;2023-04-01T10:19:14;8.20;99.90
18225;DHT22;9237;48.590;8.854;2023-04-01T10:28:36;8.30;99.90
18225;DHT22;9237;48.590;8.854;2023-04-01T10:34:43;8.80;99.90
18225;DHT22;9237;48.590;8.854;2023-04-01T10:37:47;9.00;99.90
18225;DHT22;9237;48.590;8.854;2023-04-01T10:40:35;9.00;99.90
18225;DHT22;9237;48.590;8.854;2023-04-01T10:55:52;9.60;99.90
18225;DHT22;9237;48.590;8.854;2023-04-01T11:04:51;9.10;99.90
18225;DHT22;9237;48.590;8.854;2023-04-01T11:07:58;9.10;99.90
18225;DHT22;9237;48.590;8.854;2023-04-01T11:11:03;9.20;99.90
18225;DHT22;9237;48.590;8.854;2023-04-01T11:13:56;9.10;99.90
18225;DHT22;9237;48.590;8.854;2023-04-01T11:17:03;9.10;99.90
18225;DHT22;9237;48.590;8.854;2023-04-01T11:19:50;9.20;99.90
18225;DHT22;9237;48.590;8.854;2023-04-01T11:22:53;9.20;99.90
18225;DHT22;9237;48.590;8.854;2023-04-01T11:25:50;9.50;99.90
18225;DHT22;9237;48.590;8.854;2023-04-01T11:31:29;9.40;99.90
18225;DHT22;9237;48.590;8.854;2023-04-01T11:34:05;10.10;99.90
18225;DHT22;9237;48.590;8.854;2023-04-01T11:36:41;10.00;99.90
18225;DHT22;9237;48.590;8.854;2023-04-01T11:39:21;9.60;99.90
18225;DHT22;9237;48.590;8.854;2023-04-01T11:41:56;9.60;99.90
18225;DHT22;9237;48.590;8.854;2023-04-01T11:44:27;9.60;99.90
18225;DHT22;9237;48.590;8.854;2023-04-01T11:47:40;10.00;99.90
18225;DHT22;9237;48.590;8.854;2023-04-01T11:50:21;9.60;99.90
18225;DHT22;9237;48.590;8.854;2023-04-01T11:53:04;9.70;99.90
18225;DHT22;9237;48.590;8.854;2023-04-01T11:55:41;9.80;99.90
18225;DHT22;9237;48.590;8.854;2023-04-01T12:01:27;10.60;99.90
18225;DHT22;9237;48.590;8.854;2023-04-01T12:04:31;10.20;99.90
18225;DHT22;9237;48.590;8.854;2023-04-01T12:07:10;10.40;99.90
18225;DHT22;9237;48.590;8.854;2023-04-01T12:09:43;10.80;99.90
18225;DHT22;9237;48.590;8.854;2023-04-01T12:12:19;10.90;99.90
18225;DHT22;9237;48.590;8.854;2023-04-01T12:14:57;10.80;99.90
18225;DHT22;9237;48.590;8.854;2023-04-01T12:17:34;10.50;99.90
18225;DHT22;9237;48.590;8.854;2023-04-01T12:23:03;10.60;99.90
18225;DHT22;9237;48.590;8.854;2023-04-01T12:25:55;10.40;99.90
18225;DHT22;9237;48.590;8.854;2023-04-01T12:28:37;10.20;99.90
18225;DHT22;9237;48.590;8.854;2023-04-01T12:31:26;10.10;99.90
18225;DHT22;9237;48.590;8.854;2023-04-01T12:34:26;10.10;99.90
18225;DHT22;9237;48.590;8.854;2023-04-01T12:37:04;10.20;99.90
18225;DHT22;9237;48.590;8.854;2023-04-01T12:39:45;10.30;99.90
18225;DHT22;9237;48.590;8.854;2023-04-01T12:42:23;10.10;99.90
18225;DHT22;9237;48.590;8.854;2023-04-01T12:45:11;10.40;99.90
18225;DHT22;9237;48.590;8.854;2023-04-01T12:48:05;12.00;99.90
18225;DHT22;9237;48.590;8.854;2023-04-01T12:51:01;10.80;99.90
18225;DHT22;9237;48.590;8.854;2023-04-01T12:53:51;11.40;99.90
18225;DHT22;9237;48.590;8.854;2023-04-01T12:56:29;11.40;99.90
18225;DHT22;9237;48.590;8.854;2023-04-01T12:59:22;11.80;99.90
18225;DHT22;9237;48.590;8.854;2023-04-01T13:02:11;11.90;99.90
18225;DHT22;9237;48.590;8.854;2023-04-01T13:07:41;11.70;99.90
18225;DHT22;9237;48.590;8.854;2023-04-01T13:10:20;11.30;99.90
18225;DHT22;9237;48.590;8.854;2023-04-01T13:13:05;11.00;99.90
18225;DHT22;9237;48.590;8.854;2023-04-01T13:15:40;11.30;99.90
18225;DHT22;9237;48.590;8.854;2023-04-01T13:18:18;11.10;99.90
18225;DHT22;9237;48.590;8.854;2023-04-01T13:20:54;11.10;99.90
18225;DHT22;9237;48.590;8.854;2023-04-01T13:23:41;11.40;99.90
18225;DHT22;9237;48.590;8.854;2023-04-01T13:26:17;11.50;99.90
18225;DHT22;9237;48.590;8.854;2023-04-01T13:28:49;11.50;99.90
18225;DHT22;9237;48.590;8.854;2023-04-01T13:31:34;11.40;99.90
18225;DHT22;9237;48.590;8.854;2023-04-01T13:34:26;11.20;99.90
18225;DHT22;9237;48.590;8.854;2023-04-01T13:37:08;11.10;99.90
18225;DHT22;9237;48.590;8.854;2023-04-01T13:39:57;11.30;99.90
18225;DHT22;9237;48.590;8.854;2023-04-01T13:42:29;10.90;99.90
18225;DHT22;9237;48.590;8.854;2023-04-01T13:45:01;10.80;99.90
18225;DHT22;9237;48.590;8.854;2023-04-01T13:47:45;10.70;99.90
18225;DHT22;9237;48.590;8.854;2023-04-01T13:50:32;10.80;99.90
18225;DHT22;9237;48.590;8.854;2023-04-01T13:56:16;11.00;99.90
18225;DHT22;9237;48.590;8.854;2023-04-01T14:01:41;11.30;99.90
18225;DHT22;9237;48.590;8.854;2023-04-01T14:04:42;11.20;99.90
18225;DHT22;9237;48.590;8.854;2023-04-01T14:07:37;11.00;99.90
18225;DHT22;9237;48.590;8.854;2023-04-01T14:10:19;10.90;99.90
18225;DHT22;9237;48.590;8.854;2023-04-01T14:12:56;10.90;99.90
18225;DHT22;9237;48.590;8.854;2023-04-01T14:15:50;11.00;99.90
18225;DHT22;9237;48.590;8.854;2023-04-01T14:18:29;11.10;99.90
18225;DHT22;9237;48.590;8.854;2023-04-01T14:21:17;10.60;99.90
18225;DHT22;9237;48.590;8.854;2023-04-01T14:24:06;10.70;99.90
18225;DHT22;9237;48.590;8.854;2023-04-01T14:29:52;10.80;99.90
18225;DHT22;9237;48.590;8.854;2023-04-01T14:32:31;10.50;99.90
18225;DHT22;9237;48.590;8.854;2023-04-01T14:35:19;10.50;99.90
18225;DHT22;9237;48.590;8.854;2023-04-01T14:38:22;10.40;99.90
18225;DHT22;9237;48.590;8.854;2023-04-01T14:41:02;10.50;99.90
18225;DHT22;9237;48.590;8.854;2023-04-01T14:46:41;10.70;99.90
18225;DHT22;9237;48.590;8.854;2023-04-01T14:49:19;11.00;99.90
18225;DHT22;9237;48.590;8.854;2023-04-01T14:51:48;10.80;99.90
18225;DHT22;9237;48.590;8.854;2023-04-01T14:54:20;10.70;99.90
18225;DHT22;9237;48.590;8.854;2023-04-01T14:56:51;10.70;99.90
18225;DHT22;9237;48.590;8.854;2023-04-01T14:59:28;10.80;99.90
18225;DHT22;9237;48.590;8.854;2023-04-01T15:02:01;10.90;99.90
18225;DHT22;9237;48.590;8.854;2023-04-01T15:04:41;10.90;99.90
18225;DHT22;9237;48.590;8.854;2023-04-01T15:07:45;10.80;99.90
18225;DHT22;9237;48.590;8.854;2023-04-01T15:13:30;10.80;99.90
18225;DHT22;9237;48.590;8.854;2023-04-01T15:16:11;10.80;99.90
18225;DHT22;9237;48.590;8.854;2023-04-01T15:18:49;10.80;99.90
18225;DHT22;9237;48.590;8.854;2023-04-01T15:21:38;10.80;99.90
18225;DHT22;9237;48.590;8.854;2023-04-01T15:24:07;10.70;99.90
18225;DHT22;9237;48.590;8.854;2023-04-01T15:27:03;10.60;99.90
18225;DHT22;9237;48.590;8.854;2023-04-01T15:29:56;11.20;99.90
18225;DHT22;9237;48.590;8.854;2023-04-01T15:32:39;10.40;99.90
18225;DHT22;9237;48.590;8.854;2023-04-01T15:35:19;10.30;99.90
18225;DHT22;9237;48.590;8.854;2023-04-01T15:37:53;10.10;99.90
18225;DHT22;9237;48.590;8.854;2023-04-01T15:40:26;10.10;99.90
18225;DHT22;9237;48.590;8.854;2023-04-01T15:43:03;9.90;99.90
18225;DHT22;9237;48.590;8.854;2023-04-01T15:45:47;9.90;99.90
18225;DHT22;9237;48.590;8.854;2023-04-01T15:48:38;9.80;99.90
18225;DHT22;9237;48.590;8.854;2023-04-01T15:51:25;9.70;99.90
18225;DHT22;9237;48.590;8.854;2023-04-01T15:54:20;9.60;99.90
18225;DHT22;9237;48.590;8.854;2023-04-01T15:57:00;9.60;99.90
18225;DHT22;9237;48.590;8.854;2023-04-01T15:59:43;9.50;99.90
18225;DHT22;9237;48.590;8.854;2023-04-01T16:02:19;9.60;99.90
18225;DHT22;9237;48.590;8.854;2023-04-01T16:04:53;9.70;99.90
18225;DHT22;9237;48.590;8.854;2023-04-01T16:07:42;9.80;99.90
18225;DHT22;9237;48.590;8.854;2023-04-01T16:13:14;10.10;99.90
18225;DHT22;9237;48.590;8.854;2023-04-01T16:15:50;10.20;99.90
18225;DHT22;9237;48.590;8.854;2023-04-01T16:18:53;10.30;99.90
18225;DHT22;9237;48.590;8.854;2023-04-01T16:21:36;10.50;99.90
18225;DHT22;9237;48.590;8.854;2023-04-01T16:24:12;10.60;99.90
18225;DHT22;9237;48.590;8.854;2023-04-01T16:26:49;10.70;99.90
18225;DHT22;9237;48.590;8.854;2023-04-01T16:29:25;10.60;99.90
18225;DHT22;9237;48.590;8.854;2023-04-01T16:31:58;10.50;99.90
18225;DHT22;9237;48.590;8.854;2023-04-01T16:34:31;10.40;99.90
18225;DHT22;9237;48.590;8.854;2023-04-01T16:37:07;11.70;99.90
18225;DHT22;9237;48.590;8.854;2023-04-01T16:39:46;10.30;99.90
18225;DHT22;9237;48.590;8.854;2023-04-01T16:42:35;10.30;99.90
18225;DHT22;9237;48.590;8.854;2023-04-01T16:45:19;10.40;99.90
18225;DHT22;9237;48.590;8.854;2023-04-01T16:47:52;10.40;99.90
18225;DHT22;9237;48.590;8.854;2023-04-01T16:50:23;10.50;99.90
18225;DHT22;9237;48.590;8.854;2023-04-01T16:53:07;10.50;99.90
18225;DHT22;9237;48.590;8.854;2023-04-01T16:55:46;10.40;99.90
18225;DHT22;9237;48.590;8.854;2023-04-01T16:58:20;10.30;99.90
18225;DHT22;9237;48.590;8.854;2023-04-01T17:00:50;10.20;99.90
18225;DHT22;9237;48.590;8.854;2023-04-01T17:03:24;10.10;99.90
18225;DHT22;9237;48.590;8.854;2023-04-01T17:06:03;10.00;99.90
18225;DHT22;9237;48.590;8.854;2023-04-01T17:08:51;9.90;99.90
18225;DHT22;9237;48.590;8.854;2023-04-01T17:11:25;9.80;99.90
18225;DHT22;9237;48.590;8.854;2023-04-01T17:14:02;9.70;99.90
18225;DHT22;9237;48.590;8.854;2023-04-01T17:17:01;9.70;99.90
18225;DHT22;9237;48.590;8.854;2023-04-01T17:19:45;9.50;99.90
18225;DHT22;9237;48.590;8.854;2023-04-01T17:22:25;9.50;99.90
18225;DHT22;9237;48.590;8.854;2023-04-01T17:25:14;9.50;99.90
18225;DHT22;9237;48.590;8.854;2023-04-01T17:27:48;9.50;99.90
18225;DHT22;9237;48.590;8.854;2023-04-01T17:30:26;9.80;99.90
18225;DHT22;9237;48.590;8.854;2023-04-01T17:33:14;9.40;99.90
18225;DHT22;9237;48.590;8.854;2023-04-01T17:35:55;9.30;99.90
18225;DHT22;9237;48.590;8.854;2023-04-01T17:38:45;9.40;99.90
18225;DHT22;9237;48.590;8.854;2023-04-01T17:41:24;9.50;99.90
18225;DHT22;9237;48.590;8.854;2023-04-01T17:43:58;9.20;99.90
18225;DHT22;9237;48.590;8.854;2023-04-01T17:46:33;9.20;99.90
18225;DHT22;9237;48.590;8.854;2023-04-01T17:49:17;9.20;99.90
18225;DHT22;9237;48.590;8.854;2023-04-01T17:51:53;9.20;99.90
18225;DHT22;9237;48.590;8.854;2023-04-01T17:54:27;9.20;99.90
18225;DHT22;9237;48.590;8.854;2023-04-01T17:57:09;9.20;99.90
18225;DHT22;9237;48.590;8.854;2023-04-01T17:59:38;9.50;99.90
18225;DHT22;9237;48.590;8.854;2023-04-01T18:02:17;9.20;99.90
18225;DHT22;9237;48.590;8.854;2023-04-01T18:05:18;9.20;99.90
18225;DHT22;9237;48.590;8.854;2023-04-01T18:08:03;9.00;99.90
18225;DHT22;9237;48.590;8.854;2023-04-01T18:10:37;9.40;99.90
18225;DHT22;9237;48.590;8.854;2023-04-01T18:13:37;8.50;99.90
18225;DHT22;9237;48.590;8.854;2023-04-01T18:16:26;8.30;99.90
18225;DHT22;9237;48.590;8.854;2023-04-01T18:19:01;8.20;99.90